sensor_id;sensor_type;location;lat;lon;timestamp;temperature;humidity
47168;DHT22;32931;47.778;17.806;2023-08-06T00:00:47;18.80;99.90
47168;DHT22;32931;47.778;17.806;2023-08-06T00:03:13;18.80;99.90
47168;DHT22;32931;47.778;17.806;2023-08-06T00:05:42;18.80;99.90
47168;DHT22;32931;47.778;17.806;2023-08-06T00:08:08;18.80;99.90
47168;DHT22;32931;47.778;17.806;2023-08-06T00:10:35;18.80;99.90
47168;DHT22;32931;47.778;17.806;2023-08-06T00:13:01;18.80;99.90
47168;DHT22;32931;47.778;17.806;2023-08-06T00:15:27;18.80;99.90
47168;DHT22;32931;47.778;17.806;2023-08-06T00:17:53;18.80;99.90
47168;DHT22;32931;47.778;17.806;2023-08-06T00:20:19;18.80;99.90
47168;DHT22;32931;47.778;17.806;2023-08-06T00:22:46;18.80;99.90
47168;DHT22;32931;47.778;17.806;2023-08-06T00:25:12;18.80;99.90
47168;DHT22;32931;47.778;17.806;2023-08-06T00:27:38;18.80;99.90
47168;DHT22;32931;47.778;17.806;2023-08-06T00:30:05;18.90;99.90
47168;DHT22;32931;47.778;17.806;2023-08-06T00:32:31;18.80;99.90
47168;DHT22;32931;47.778;17.806;2023-08-06T00:34:57;18.90;99.90
47168;DHT22;32931;47.778;17.806;2023-08-06T00:37:23;18.90;99.90
47168;DHT22;32931;47.778;17.806;2023-08-06T00:39:49;18.90;99.90
47168;DHT22;32931;47.778;17.806;2023-08-06T00:42:15;18.90;99.90
47168;DHT22;32931;47.778;17.806;2023-08-06T00:44:46;18.90;99.90
47168;DHT22;32931;47.778;17.806;2023-08-06T00:47:13;18.90;99.90
47168;DHT22;32931;47.778;17.806;2023-08-06T00:49:39;18.90;99.90
47168;DHT22;32931;47.778;17.806;2023-08-06T00:52:07;18.90;99.90
47168;DHT22;32931;47.778;17.806;2023-08-06T00:54:34;18.90;99.90
47168;DHT22;32931;47.778;17.806;2023-08-06T00:57:01;18.80;99.90
47168;DHT22;32931;47.778;17.806;2023-08-06T00:59:29;18.80;99.90
47168;DHT22;32931;47.778;17.806;2023-08-06T01:01:56;18.90;99.90
47168;DHT22;32931;47.778;17.806;2023-08-06T01:04:23;18.80;99.90
47168;DHT22;32931;47.778;17.806;2023-08-06T01:09:33;18.80;99.90
47168;DHT22;32931;47.778;17.806;2023-08-06T01:12:25;18.80;99.90
47168;DHT22;32931;47.778;17.806;2023-08-06T01:17:29;18.80;99.90
47168;DHT22;32931;47.778;17.806;2023-08-06T01:19:56;18.70;99.90
47168;DHT22;32931;47.778;17.806;2023-08-06T01:22:22;18.70;99.90
47168;DHT22;32931;47.778;17.806;2023-08-06T01:24:50;18.80;99.90
47168;DHT22;32931;47.778;17.806;2023-08-06T01:30:24;18.80;99.90
47168;DHT22;32931;47.778;17.806;2023-08-06T01:32:56;18.80;99.90
47168;DHT22;32931;47.778;17.806;2023-08-06T01:35:25;18.80;99.90
47168;DHT22;32931;47.778;17.806;2023-08-06T01:37:52;18.80;99.90
47168;DHT22;32931;47.778;17.806;2023-08-06T01:40:19;18.80;99.90
47168;DHT22;32931;47.778;17.806;2023-08-06T01:42:45;18.90;99.90
47168;DHT22;32931;47.778;17.806;2023-08-06T01:45:11;18.90;99.90
47168;DHT22;32931;47.778;17.806;2023-08-06T01:47:37;18.90;99.90
47168;DHT22;32931;47.778;17.806;2023-08-06T01:50:03;18.70;99.90
47168;DHT22;32931;47.778;17.806;2023-08-06T01:52:30;18.80;99.90
47168;DHT22;32931;47.778;17.806;2023-08-06T01:54:56;18.80;99.90
47168;DHT22;32931;47.778;17.806;2023-08-06T01:57:22;18.80;99.90
47168;DHT22;32931;47.778;17.806;2023-08-06T01:59:48;18.80;99.90
47168;DHT22;32931;47.778;17.806;2023-08-06T02:02:14;18.70;99.90
47168;DHT22;32931;47.778;17.806;2023-08-06T02:04:41;18.70;99.90
47168;DHT22;32931;47.778;17.806;2023-08-06T02:07:07;18.70;99.90
47168;DHT22;32931;47.778;17.806;2023-08-06T02:09:33;18.70;99.90
47168;DHT22;32931;47.778;17.806;2023-08-06T02:12:01;18.70;99.90
47168;DHT22;32931;47.778;17.806;2023-08-06T02:14:28;18.70;99.90
47168;DHT22;32931;47.778;17.806;2023-08-06T02:16:54;18.60;99.90
47168;DHT22;32931;47.778;17.806;2023-08-06T02:19:20;18.60;99.90
47168;DHT22;32931;47.778;17.806;2023-08-06T02:21:46;18.60;99.90
47168;DHT22;32931;47.778;17.806;2023-08-06T02:24:12;18.50;99.90
47168;DHT22;32931;47.778;17.806;2023-08-06T02:26:39;18.60;99.90
47168;DHT22;32931;47.778;17.806;2023-08-06T02:29:05;18.60;99.90
47168;DHT22;32931;47.778;17.806;2023-08-06T02:31:31;18.60;99.90
47168;DHT22;32931;47.778;17.806;2023-08-06T02:33:57;18.60;99.90
47168;DHT22;32931;47.778;17.806;2023-08-06T02:36:24;18.60;99.90
47168;DHT22;32931;47.778;17.806;2023-08-06T02:38:50;18.60;99.90
47168;DHT22;32931;47.778;17.806;2023-08-06T02:41:16;18.60;99.90
47168;DHT22;32931;47.778;17.806;2023-08-06T02:43:43;18.60;99.90
47168;DHT22;32931;47.778;17.806;2023-08-06T02:46:09;18.50;99.90
47168;DHT22;32931;47.778;17.806;2023-08-06T02:48:35;18.50;99.90
47168;DHT22;32931;47.778;17.806;2023-08-06T02:51:01;18.40;99.90
47168;DHT22;32931;47.778;17.806;2023-08-06T02:53:27;18.40;99.90
47168;DHT22;32931;47.778;17.806;2023-08-06T02:55:53;18.30;99.90
47168;DHT22;32931;47.778;17.806;2023-08-06T02:58:20;18.20;99.90
47168;DHT22;32931;47.778;17.806;2023-08-06T03:01:02;18.20;99.90
47168;DHT22;32931;47.778;17.806;2023-08-06T03:03:31;18.10;99.90
47168;DHT22;32931;47.778;17.806;2023-08-06T03:05:57;18.10;99.90
47168;DHT22;32931;47.778;17.806;2023-08-06T03:08:23;18.10;99.90
47168;DHT22;32931;47.778;17.806;2023-08-06T03:10:50;18.00;99.90
47168;DHT22;32931;47.778;17.806;2023-08-06T03:13:17;17.90;99.90
47168;DHT22;32931;47.778;17.806;2023-08-06T03:15:50;17.90;99.90
47168;DHT22;32931;47.778;17.806;2023-08-06T03:18:17;17.90;99.90
47168;DHT22;32931;47.778;17.806;2023-08-06T03:20:44;17.80;99.90
47168;DHT22;32931;47.778;17.806;2023-08-06T03:23:10;17.70;99.90
47168;DHT22;32931;47.778;17.806;2023-08-06T03:25:36;17.80;99.90
47168;DHT22;32931;47.778;17.806;2023-08-06T03:28:02;17.70;99.90
47168;DHT22;32931;47.778;17.806;2023-08-06T03:30:29;17.60;99.90
47168;DHT22;32931;47.778;17.806;2023-08-06T03:32:55;17.60;99.90
47168;DHT22;32931;47.778;17.806;2023-08-06T03:35:21;17.60;99.90
47168;DHT22;32931;47.778;17.806;2023-08-06T03:37:47;17.50;99.90
47168;DHT22;32931;47.778;17.806;2023-08-06T03:40:15;17.50;99.90
47168;DHT22;32931;47.778;17.806;2023-08-06T03:42:42;17.40;99.90
47168;DHT22;32931;47.778;17.806;2023-08-06T03:45:08;17.40;99.90
47168;DHT22;32931;47.778;17.806;2023-08-06T03:47:35;17.30;99.90
47168;DHT22;32931;47.778;17.806;2023-08-06T03:50:01;17.30;99.90
47168;DHT22;32931;47.778;17.806;2023-08-06T03:52:27;17.30;99.90
47168;DHT22;32931;47.778;17.806;2023-08-06T03:54:53;17.30;99.90
47168;DHT22;32931;47.778;17.806;2023-08-06T03:57:19;17.30;99.90
47168;DHT22;32931;47.778;17.806;2023-08-06T03:59:45;17.30;99.90
47168;DHT22;32931;47.778;17.806;2023-08-06T04:02:11;17.30;99.90
47168;DHT22;32931;47.778;17.806;2023-08-06T04:04:37;17.30;99.90
47168;DHT22;32931;47.778;17.806;2023-08-06T04:07:04;17.30;99.90
47168;DHT22;32931;47.778;17.806;2023-08-06T04:09:30;17.20;99.90
47168;DHT22;32931;47.778;17.806;2023-08-06T04:11:56;17.20;99.90
47168;DHT22;32931;47.778;17.806;2023-08-06T04:14:26;17.20;99.90
47168;DHT22;32931;47.778;17.806;2023-08-06T04:16:52;17.20;99.90
47168;DHT22;32931;47.778;17.806;2023-08-06T04:19:18;17.20;99.90
47168;DHT22;32931;47.778;17.806;2023-08-06T04:21:44;17.20;99.90
47168;DHT22;32931;47.778;17.806;2023-08-06T04:24:10;17.20;99.90
47168;DHT22;32931;47.778;17.806;2023-08-06T04:26:36;17.20;99.90
47168;DHT22;32931;47.778;17.806;2023-08-06T04:29:03;17.20;99.90
47168;DHT22;32931;47.778;17.806;2023-08-06T04:31:29;17.20;99.90
47168;DHT22;32931;47.778;17.806;2023-08-06T04:33:56;17.20;99.90
47168;DHT22;32931;47.778;17.806;2023-08-06T04:36:22;17.20;99.90
47168;DHT22;32931;47.778;17.806;2023-08-06T04:38:48;17.20;99.90
47168;DHT22;32931;47.778;17.806;2023-08-06T04:41:14;17.20;99.90
47168;DHT22;32931;47.778;17.806;2023-08-06T04:43:40;17.20;99.90
47168;DHT22;32931;47.778;17.806;2023-08-06T04:46:07;17.20;99.90
47168;DHT22;32931;47.778;17.806;2023-08-06T04:48:33;17.20;99.90
47168;DHT22;32931;47.778;17.806;2023-08-06T04:50:59;17.10;99.90
47168;DHT22;32931;47.778;17.806;2023-08-06T04:53:25;17.10;99.90
47168;DHT22;32931;47.778;17.806;2023-08-06T04:55:52;17.10;99.90
47168;DHT22;32931;47.778;17.806;2023-08-06T04:58:18;17.20;99.90
47168;DHT22;32931;47.778;17.806;2023-08-06T05:00:44;17.10;99.90
47168;DHT22;32931;47.778;17.806;2023-08-06T05:03:10;17.10;99.90
47168;DHT22;32931;47.778;17.806;2023-08-06T05:05:36;17.10;99.90
47168;DHT22;32931;47.778;17.806;2023-08-06T05:08:02;17.10;99.90
47168;DHT22;32931;47.778;17.806;2023-08-06T05:10:29;17.00;99.90
47168;DHT22;32931;47.778;17.806;2023-08-06T05:12:55;17.00;99.90
47168;DHT22;32931;47.778;17.806;2023-08-06T05:15:21;17.10;99.90
47168;DHT22;32931;47.778;17.806;2023-08-06T05:17:47;17.10;99.90
47168;DHT22;32931;47.778;17.806;2023-08-06T05:20:13;17.10;99.90
47168;DHT22;32931;47.778;17.806;2023-08-06T05:22:40;17.10;99.90
47168;DHT22;32931;47.778;17.806;2023-08-06T05:25:06;17.00;99.90
47168;DHT22;32931;47.778;17.806;2023-08-06T05:27:33;17.00;99.90
47168;DHT22;32931;47.778;17.806;2023-08-06T05:29:59;17.00;99.90
47168;DHT22;32931;47.778;17.806;2023-08-06T05:32:25;17.00;99.90
47168;DHT22;32931;47.778;17.806;2023-08-06T05:34:51;17.00;99.90
47168;DHT22;32931;47.778;17.806;2023-08-06T05:37:17;17.00;99.90
47168;DHT22;32931;47.778;17.806;2023-08-06T05:39:43;17.00;99.90
47168;DHT22;32931;47.778;17.806;2023-08-06T05:42:09;17.10;99.90
47168;DHT22;32931;47.778;17.806;2023-08-06T05:44:35;17.10;99.90
47168;DHT22;32931;47.778;17.806;2023-08-06T05:47:02;17.00;99.90
47168;DHT22;32931;47.778;17.806;2023-08-06T05:49:28;17.00;99.90
47168;DHT22;32931;47.778;17.806;2023-08-06T05:51:54;17.00;99.90
47168;DHT22;32931;47.778;17.806;2023-08-06T05:54:20;17.00;99.90
47168;DHT22;32931;47.778;17.806;2023-08-06T05:56:46;17.00;99.90
47168;DHT22;32931;47.778;17.806;2023-08-06T05:59:12;16.90;99.90
47168;DHT22;32931;47.778;17.806;2023-08-06T06:01:38;16.90;99.90
47168;DHT22;32931;47.778;17.806;2023-08-06T06:04:05;16.90;99.90
47168;DHT22;32931;47.778;17.806;2023-08-06T06:06:31;16.90;99.90
47168;DHT22;32931;47.778;17.806;2023-08-06T06:08:57;16.90;99.90
47168;DHT22;32931;47.778;17.806;2023-08-06T06:11:24;17.00;99.90
47168;DHT22;32931;47.778;17.806;2023-08-06T06:13:51;17.00;99.90
47168;DHT22;32931;47.778;17.806;2023-08-06T06:16:17;16.90;99.90
47168;DHT22;32931;47.778;17.806;2023-08-06T06:18:44;16.90;99.90
47168;DHT22;32931;47.778;17.806;2023-08-06T06:21:10;16.90;99.90
47168;DHT22;32931;47.778;17.806;2023-08-06T06:23:37;16.90;99.90
47168;DHT22;32931;47.778;17.806;2023-08-06T06:26:03;16.90;99.90
47168;DHT22;32931;47.778;17.806;2023-08-06T06:28:29;17.00;99.90
47168;DHT22;32931;47.778;17.806;2023-08-06T06:31:00;17.00;99.90
47168;DHT22;32931;47.778;17.806;2023-08-06T06:33:26;17.00;99.90
47168;DHT22;32931;47.778;17.806;2023-08-06T06:35:53;17.00;99.90
47168;DHT22;32931;47.778;17.806;2023-08-06T06:38:19;17.00;99.90
47168;DHT22;32931;47.778;17.806;2023-08-06T06:40:53;17.00;99.90
47168;DHT22;32931;47.778;17.806;2023-08-06T06:43:20;17.10;99.90
47168;DHT22;32931;47.778;17.806;2023-08-06T06:45:46;17.10;99.90
47168;DHT22;32931;47.778;17.806;2023-08-06T06:48:12;17.10;99.90
47168;DHT22;32931;47.778;17.806;2023-08-06T06:50:38;17.10;99.90
47168;DHT22;32931;47.778;17.806;2023-08-06T06:53:06;17.10;99.90
47168;DHT22;32931;47.778;17.806;2023-08-06T06:55:32;17.10;99.90
47168;DHT22;32931;47.778;17.806;2023-08-06T06:57:58;17.10;99.90
47168;DHT22;32931;47.778;17.806;2023-08-06T07:00:24;17.10;99.90
47168;DHT22;32931;47.778;17.806;2023-08-06T07:02:50;17.10;99.90
47168;DHT22;32931;47.778;17.806;2023-08-06T07:05:16;17.20;99.90
47168;DHT22;32931;47.778;17.806;2023-08-06T07:07:42;17.10;99.90
47168;DHT22;32931;47.778;17.806;2023-08-06T07:10:09;17.10;99.90
47168;DHT22;32931;47.778;17.806;2023-08-06T07:12:35;17.20;99.90
47168;DHT22;32931;47.778;17.806;2023-08-06T07:15:05;17.20;99.90
47168;DHT22;32931;47.778;17.806;2023-08-06T07:17:32;17.10;99.90
47168;DHT22;32931;47.778;17.806;2023-08-06T07:19:58;17.20;99.90
47168;DHT22;32931;47.778;17.806;2023-08-06T07:22:24;17.20;99.90
47168;DHT22;32931;47.778;17.806;2023-08-06T07:24:50;17.20;99.90
47168;DHT22;32931;47.778;17.806;2023-08-06T07:27:16;17.20;99.90
47168;DHT22;32931;47.778;17.806;2023-08-06T07:29:42;17.20;99.90
47168;DHT22;32931;47.778;17.806;2023-08-06T07:32:09;17.20;99.90
47168;DHT22;32931;47.778;17.806;2023-08-06T07:34:35;17.30;99.90
47168;DHT22;32931;47.778;17.806;2023-08-06T07:37:01;17.30;99.90
47168;DHT22;32931;47.778;17.806;2023-08-06T07:39:27;17.30;99.90
47168;DHT22;32931;47.778;17.806;2023-08-06T07:41:54;17.30;99.90
47168;DHT22;32931;47.778;17.806;2023-08-06T07:44:20;17.30;99.90
47168;DHT22;32931;47.778;17.806;2023-08-06T07:46:46;17.30;99.90
47168;DHT22;32931;47.778;17.806;2023-08-06T07:49:12;17.30;99.90
47168;DHT22;32931;47.778;17.806;2023-08-06T07:51:39;17.30;99.90
47168;DHT22;32931;47.778;17.806;2023-08-06T07:54:06;17.40;99.90
47168;DHT22;32931;47.778;17.806;2023-08-06T07:56:32;17.40;99.90
47168;DHT22;32931;47.778;17.806;2023-08-06T07:58:58;17.30;99.90
47168;DHT22;32931;47.778;17.806;2023-08-06T08:01:24;17.30;99.90
47168;DHT22;32931;47.778;17.806;2023-08-06T08:03:50;17.30;99.90
47168;DHT22;32931;47.778;17.806;2023-08-06T08:06:17;17.20;99.90
47168;DHT22;32931;47.778;17.806;2023-08-06T08:08:43;17.20;99.90
47168;DHT22;32931;47.778;17.806;2023-08-06T08:11:09;17.20;99.90
47168;DHT22;32931;47.778;17.806;2023-08-06T08:13:35;17.20;99.90
47168;DHT22;32931;47.778;17.806;2023-08-06T08:16:02;17.20;99.90
47168;DHT22;32931;47.778;17.806;2023-08-06T08:18:28;17.20;99.90
47168;DHT22;32931;47.778;17.806;2023-08-06T08:20:54;17.20;99.90
47168;DHT22;32931;47.778;17.806;2023-08-06T08:23:20;17.20;99.90
47168;DHT22;32931;47.778;17.806;2023-08-06T08:25:46;17.20;99.90
47168;DHT22;32931;47.778;17.806;2023-08-06T08:28:12;17.20;99.90
47168;DHT22;32931;47.778;17.806;2023-08-06T08:30:40;17.20;99.90
47168;DHT22;32931;47.778;17.806;2023-08-06T08:33:07;17.20;99.90
47168;DHT22;32931;47.778;17.806;2023-08-06T08:35:34;17.30;99.90
47168;DHT22;32931;47.778;17.806;2023-08-06T08:38:00;17.30;99.90
47168;DHT22;32931;47.778;17.806;2023-08-06T08:40:32;17.30;99.90
47168;DHT22;32931;47.778;17.806;2023-08-06T08:42:59;17.30;99.90
47168;DHT22;32931;47.778;17.806;2023-08-06T08:45:29;17.30;99.90
47168;DHT22;32931;47.778;17.806;2023-08-06T08:47:56;17.30;99.90
47168;DHT22;32931;47.778;17.806;2023-08-06T08:50:22;17.30;99.90
47168;DHT22;32931;47.778;17.806;2023-08-06T08:52:50;17.30;99.90
47168;DHT22;32931;47.778;17.806;2023-08-06T08:55:17;17.30;99.90
47168;DHT22;32931;47.778;17.806;2023-08-06T08:57:43;17.30;99.90
47168;DHT22;32931;47.778;17.806;2023-08-06T09:00:09;17.30;99.90
47168;DHT22;32931;47.778;17.806;2023-08-06T09:02:37;17.30;99.90
47168;DHT22;32931;47.778;17.806;2023-08-06T09:05:05;17.30;99.90
47168;DHT22;32931;47.778;17.806;2023-08-06T09:07:42;17.30;99.90
47168;DHT22;32931;47.778;17.806;2023-08-06T09:10:12;17.30;99.90
47168;DHT22;32931;47.778;17.806;2023-08-06T09:12:39;17.30;99.90
47168;DHT22;32931;47.778;17.806;2023-08-06T09:15:06;17.30;99.90
47168;DHT22;32931;47.778;17.806;2023-08-06T09:17:33;17.30;99.90
47168;DHT22;32931;47.778;17.806;2023-08-06T09:19:59;17.30;99.90
47168;DHT22;32931;47.778;17.806;2023-08-06T09:22:25;17.40;99.90
47168;DHT22;32931;47.778;17.806;2023-08-06T09:24:59;17.30;99.90
47168;DHT22;32931;47.778;17.806;2023-08-06T09:27:25;17.30;99.90
47168;DHT22;32931;47.778;17.806;2023-08-06T09:29:51;17.30;99.90
47168;DHT22;32931;47.778;17.806;2023-08-06T09:32:17;17.40;99.90
47168;DHT22;32931;47.778;17.806;2023-08-06T09:34:43;17.30;99.90
47168;DHT22;32931;47.778;17.806;2023-08-06T09:37:10;17.40;99.90
47168;DHT22;32931;47.778;17.806;2023-08-06T09:39:39;17.50;99.90
47168;DHT22;32931;47.778;17.806;2023-08-06T09:42:07;17.50;99.90
47168;DHT22;32931;47.778;17.806;2023-08-06T09:44:33;17.60;99.90
47168;DHT22;32931;47.778;17.806;2023-08-06T09:47:02;17.60;99.90
47168;DHT22;32931;47.778;17.806;2023-08-06T09:49:41;17.70;99.90
47168;DHT22;32931;47.778;17.806;2023-08-06T09:52:14;17.70;99.90
47168;DHT22;32931;47.778;17.806;2023-08-06T09:54:43;17.70;99.90
47168;DHT22;32931;47.778;17.806;2023-08-06T09:57:11;17.70;99.90
47168;DHT22;32931;47.778;17.806;2023-08-06T09:59:39;17.80;99.90
47168;DHT22;32931;47.778;17.806;2023-08-06T10:02:12;17.80;99.90
47168;DHT22;32931;47.778;17.806;2023-08-06T10:04:39;17.80;99.90
47168;DHT22;32931;47.778;17.806;2023-08-06T10:07:06;17.80;99.90
47168;DHT22;32931;47.778;17.806;2023-08-06T10:09:33;17.80;99.90
47168;DHT22;32931;47.778;17.806;2023-08-06T10:12:00;17.80;99.90
47168;DHT22;32931;47.778;17.806;2023-08-06T10:14:33;17.90;99.90
47168;DHT22;32931;47.778;17.806;2023-08-06T10:16:59;17.80;99.90
47168;DHT22;32931;47.778;17.806;2023-08-06T10:19:27;17.90;99.90
47168;DHT22;32931;47.778;17.806;2023-08-06T10:22:12;17.90;99.90
47168;DHT22;32931;47.778;17.806;2023-08-06T10:24:55;17.90;99.90
47168;DHT22;32931;47.778;17.806;2023-08-06T10:29:48;18.00;99.90
47168;DHT22;32931;47.778;17.806;2023-08-06T10:32:17;18.00;99.90
47168;DHT22;32931;47.778;17.806;2023-08-06T10:37:20;18.20;99.90
47168;DHT22;32931;47.778;17.806;2023-08-06T10:39:51;18.20;99.90
47168;DHT22;32931;47.778;17.806;2023-08-06T10:42:27;18.20;99.90
47168;DHT22;32931;47.778;17.806;2023-08-06T10:45:13;18.20;99.90
47168;DHT22;32931;47.778;17.806;2023-08-06T10:47:41;18.20;99.90
47168;DHT22;32931;47.778;17.806;2023-08-06T10:50:10;18.10;99.90
47168;DHT22;32931;47.778;17.806;2023-08-06T10:52:36;18.10;99.90
47168;DHT22;32931;47.778;17.806;2023-08-06T10:55:04;18.10;99.90
47168;DHT22;32931;47.778;17.806;2023-08-06T10:57:30;18.20;99.90
47168;DHT22;32931;47.778;17.806;2023-08-06T10:59:56;18.20;99.90
47168;DHT22;32931;47.778;17.806;2023-08-06T11:02:22;18.20;99.90
47168;DHT22;32931;47.778;17.806;2023-08-06T11:04:49;18.20;99.90
47168;DHT22;32931;47.778;17.806;2023-08-06T11:07:15;18.30;99.90
47168;DHT22;32931;47.778;17.806;2023-08-06T11:09:41;18.30;99.90
47168;DHT22;32931;47.778;17.806;2023-08-06T11:12:10;18.40;99.90
47168;DHT22;32931;47.778;17.806;2023-08-06T11:14:36;18.50;99.90
47168;DHT22;32931;47.778;17.806;2023-08-06T11:17:02;18.60;99.90
47168;DHT22;32931;47.778;17.806;2023-08-06T11:19:29;18.70;99.90
47168;DHT22;32931;47.778;17.806;2023-08-06T11:21:55;18.70;99.90
47168;DHT22;32931;47.778;17.806;2023-08-06T11:24:24;18.90;99.90
47168;DHT22;32931;47.778;17.806;2023-08-06T11:26:50;18.90;99.90
47168;DHT22;32931;47.778;17.806;2023-08-06T11:29:16;19.00;99.90
47168;DHT22;32931;47.778;17.806;2023-08-06T11:31:42;19.00;99.90
47168;DHT22;32931;47.778;17.806;2023-08-06T11:34:08;19.00;99.90
47168;DHT22;32931;47.778;17.806;2023-08-06T11:36:40;19.10;99.90
47168;DHT22;32931;47.778;17.806;2023-08-06T11:39:07;19.20;99.90
47168;DHT22;32931;47.778;17.806;2023-08-06T11:41:33;19.10;99.90
47168;DHT22;32931;47.778;17.806;2023-08-06T11:43:59;19.10;99.90
47168;DHT22;32931;47.778;17.806;2023-08-06T11:46:26;19.10;99.90
47168;DHT22;32931;47.778;17.806;2023-08-06T11:48:59;19.20;99.90
47168;DHT22;32931;47.778;17.806;2023-08-06T11:51:25;19.20;99.90
47168;DHT22;32931;47.778;17.806;2023-08-06T11:53:58;19.10;99.90
47168;DHT22;32931;47.778;17.806;2023-08-06T11:56:25;19.10;99.90
47168;DHT22;32931;47.778;17.806;2023-08-06T11:58:52;19.20;99.90
47168;DHT22;32931;47.778;17.806;2023-08-06T12:01:18;19.20;99.90
47168;DHT22;32931;47.778;17.806;2023-08-06T12:03:44;19.20;99.90
47168;DHT22;32931;47.778;17.806;2023-08-06T12:06:10;19.30;99.90
47168;DHT22;32931;47.778;17.806;2023-08-06T12:08:37;19.30;99.90
47168;DHT22;32931;47.778;17.806;2023-08-06T12:11:04;19.30;99.90
47168;DHT22;32931;47.778;17.806;2023-08-06T12:13:30;19.30;99.90
47168;DHT22;32931;47.778;17.806;2023-08-06T12:15:56;19.30;99.90
47168;DHT22;32931;47.778;17.806;2023-08-06T12:18:23;19.30;99.90
47168;DHT22;32931;47.778;17.806;2023-08-06T12:20:49;19.20;99.90
47168;DHT22;32931;47.778;17.806;2023-08-06T12:23:16;19.20;99.90
47168;DHT22;32931;47.778;17.806;2023-08-06T12:25:43;19.20;99.90
47168;DHT22;32931;47.778;17.806;2023-08-06T12:28:10;19.20;99.90
47168;DHT22;32931;47.778;17.806;2023-08-06T12:30:37;19.30;99.90
47168;DHT22;32931;47.778;17.806;2023-08-06T12:33:07;19.30;99.90
47168;DHT22;32931;47.778;17.806;2023-08-06T12:35:33;19.40;99.90
47168;DHT22;32931;47.778;17.806;2023-08-06T12:38:00;19.40;99.90
47168;DHT22;32931;47.778;17.806;2023-08-06T12:40:26;19.40;99.90
47168;DHT22;32931;47.778;17.806;2023-08-06T12:42:53;19.30;99.90
47168;DHT22;32931;47.778;17.806;2023-08-06T12:45:19;19.20;99.90
47168;DHT22;32931;47.778;17.806;2023-08-06T12:47:47;19.10;99.90
47168;DHT22;32931;47.778;17.806;2023-08-06T12:50:13;19.00;99.90
47168;DHT22;32931;47.778;17.806;2023-08-06T12:52:39;19.00;99.90
47168;DHT22;32931;47.778;17.806;2023-08-06T12:55:05;19.00;99.90
47168;DHT22;32931;47.778;17.806;2023-08-06T12:57:32;19.00;99.90
47168;DHT22;32931;47.778;17.806;2023-08-06T12:59:59;18.90;99.90
47168;DHT22;32931;47.778;17.806;2023-08-06T13:02:25;18.90;99.90
47168;DHT22;32931;47.778;17.806;2023-08-06T13:04:55;18.80;99.90
47168;DHT22;32931;47.778;17.806;2023-08-06T13:07:21;18.90;99.90
47168;DHT22;32931;47.778;17.806;2023-08-06T13:09:47;18.90;99.90
47168;DHT22;32931;47.778;17.806;2023-08-06T13:12:13;18.90;99.90
47168;DHT22;32931;47.778;17.806;2023-08-06T13:14:40;18.90;99.90
47168;DHT22;32931;47.778;17.806;2023-08-06T13:17:06;18.80;99.90
47168;DHT22;32931;47.778;17.806;2023-08-06T13:19:33;18.80;99.90
47168;DHT22;32931;47.778;17.806;2023-08-06T13:22:01;18.80;99.90
47168;DHT22;32931;47.778;17.806;2023-08-06T13:24:28;18.90;99.90
47168;DHT22;32931;47.778;17.806;2023-08-06T13:26:54;18.80;99.90
47168;DHT22;32931;47.778;17.806;2023-08-06T13:29:21;18.90;99.90
47168;DHT22;32931;47.778;17.806;2023-08-06T13:31:47;18.80;99.90
47168;DHT22;32931;47.778;17.806;2023-08-06T13:34:13;18.80;99.90
47168;DHT22;32931;47.778;17.806;2023-08-06T13:36:39;18.70;99.90
47168;DHT22;32931;47.778;17.806;2023-08-06T13:39:05;18.70;99.90
47168;DHT22;32931;47.778;17.806;2023-08-06T13:41:31;18.80;99.90
47168;DHT22;32931;47.778;17.806;2023-08-06T13:43:57;18.80;99.90
47168;DHT22;32931;47.778;17.806;2023-08-06T13:46:23;18.80;99.90
47168;DHT22;32931;47.778;17.806;2023-08-06T13:48:50;18.80;99.90
47168;DHT22;32931;47.778;17.806;2023-08-06T13:51:19;18.80;99.90
47168;DHT22;32931;47.778;17.806;2023-08-06T13:53:45;18.80;99.90
47168;DHT22;32931;47.778;17.806;2023-08-06T13:56:11;18.80;99.90
47168;DHT22;32931;47.778;17.806;2023-08-06T13:58:38;18.80;99.90
47168;DHT22;32931;47.778;17.806;2023-08-06T14:01:04;18.80;99.90
47168;DHT22;32931;47.778;17.806;2023-08-06T14:03:30;18.80;99.90
47168;DHT22;32931;47.778;17.806;2023-08-06T14:05:57;18.80;99.90
47168;DHT22;32931;47.778;17.806;2023-08-06T14:08:23;18.80;99.90
47168;DHT22;32931;47.778;17.806;2023-08-06T14:10:51;18.80;99.90
47168;DHT22;32931;47.778;17.806;2023-08-06T14:13:17;18.70;99.90
47168;DHT22;32931;47.778;17.806;2023-08-06T14:15:44;18.80;99.90
47168;DHT22;32931;47.778;17.806;2023-08-06T14:18:16;18.70;99.90
47168;DHT22;32931;47.778;17.806;2023-08-06T14:20:43;18.70;99.90
47168;DHT22;32931;47.778;17.806;2023-08-06T14:23:10;18.70;99.90
47168;DHT22;32931;47.778;17.806;2023-08-06T14:25:37;18.70;99.90
47168;DHT22;32931;47.778;17.806;2023-08-06T14:28:03;18.70;99.90
47168;DHT22;32931;47.778;17.806;2023-08-06T14:30:31;18.70;99.90
47168;DHT22;32931;47.778;17.806;2023-08-06T14:32:57;18.60;99.90
47168;DHT22;32931;47.778;17.806;2023-08-06T14:35:26;18.70;99.90
47168;DHT22;32931;47.778;17.806;2023-08-06T14:37:52;18.70;99.90
47168;DHT22;32931;47.778;17.806;2023-08-06T14:40:18;18.70;99.90
47168;DHT22;32931;47.778;17.806;2023-08-06T14:42:44;18.80;99.90
47168;DHT22;32931;47.778;17.806;2023-08-06T14:45:10;18.90;99.90
47168;DHT22;32931;47.778;17.806;2023-08-06T14:47:37;19.00;99.90
47168;DHT22;32931;47.778;17.806;2023-08-06T14:50:03;19.10;99.90
47168;DHT22;32931;47.778;17.806;2023-08-06T14:52:29;19.10;99.90
47168;DHT22;32931;47.778;17.806;2023-08-06T14:54:55;19.20;99.90
47168;DHT22;32931;47.778;17.806;2023-08-06T14:57:22;19.20;99.90
47168;DHT22;32931;47.778;17.806;2023-08-06T14:59:54;19.20;99.90
47168;DHT22;32931;47.778;17.806;2023-08-06T15:02:20;19.20;99.90
47168;DHT22;32931;47.778;17.806;2023-08-06T15:04:46;19.30;99.90
47168;DHT22;32931;47.778;17.806;2023-08-06T15:07:13;19.40;99.90
47168;DHT22;32931;47.778;17.806;2023-08-06T15:09:39;19.40;99.90
47168;DHT22;32931;47.778;17.806;2023-08-06T15:12:05;19.40;99.90
47168;DHT22;32931;47.778;17.806;2023-08-06T15:14:32;19.40;99.90
47168;DHT22;32931;47.778;17.806;2023-08-06T15:16:58;19.40;99.90
47168;DHT22;32931;47.778;17.806;2023-08-06T15:19:24;19.40;99.90
47168;DHT22;32931;47.778;17.806;2023-08-06T15:21:51;19.40;99.90
47168;DHT22;32931;47.778;17.806;2023-08-06T15:24:17;19.40;99.90
47168;DHT22;32931;47.778;17.806;2023-08-06T15:26:43;19.30;99.90